sensor_id;sensor_type;location;lat;lon;timestamp;P1;durP1;ratioP1;P2;durP2;ratioP2
16385;SDS011;8302;51.154;4.456;2024-01-15T00:02:12;5.70;;;2.70;;
16385;SDS011;8302;51.154;4.456;2024-01-15T00:04:40;4.07;;;2.30;;
16385;SDS011;8302;51.154;4.456;2024-01-15T00:07:08;5.68;;;2.95;;
16385;SDS011;8302;51.154;4.456;2024-01-15T00:09:36;4.97;;;2.88;;
16385;SDS011;8302;51.154;4.456;2024-01-15T00:12:06;3.63;;;2.45;;
16385;SDS011;8302;51.154;4.456;2024-01-15T00:14:34;4.45;;;2.55;;
16385;SDS011;8302;51.154;4.456;2024-01-15T00:17:02;2.65;;;1.98;;
16385;SDS011;8302;51.154;4.456;2024-01-15T00:19:29;5.43;;;2.88;;
16385;SDS011;8302;51.154;4.456;2024-01-15T00:21:58;3.95;;;2.17;;
16385;SDS011;8302;51.154;4.456;2024-01-15T00:24:26;5.35;;;1.88;;
16385;SDS011;8302;51.154;4.456;2024-01-15T00:26:54;4.13;;;2.20;;
16385;SDS011;8302;51.154;4.456;2024-01-15T00:29:23;3.78;;;1.80;;
16385;SDS011;8302;51.154;4.456;2024-01-15T00:31:51;3.88;;;2.30;;
16385;SDS011;8302;51.154;4.456;2024-01-15T00:34:19;3.20;;;2.05;;
16385;SDS011;8302;51.154;4.456;2024-01-15T00:36:46;4.93;;;2.38;;
16385;SDS011;8302;51.154;4.456;2024-01-15T00:39:15;4.05;;;2.55;;
16385;SDS011;8302;51.154;4.456;2024-01-15T00:41:43;2.78;;;2.17;;
16385;SDS011;8302;51.154;4.456;2024-01-15T00:44:11;4.65;;;2.25;;
16385;SDS011;8302;51.154;4.456;2024-01-15T00:46:43;3.83;;;2.00;;
16385;SDS011;8302;51.154;4.456;2024-01-15T00:49:11;2.65;;;1.40;;
16385;SDS011;8302;51.154;4.456;2024-01-15T00:51:39;2.28;;;1.92;;
16385;SDS011;8302;51.154;4.456;2024-01-15T00:54:07;3.53;;;1.92;;
16385;SDS011;8302;51.154;4.456;2024-01-15T00:56:36;3.28;;;1.90;;
16385;SDS011;8302;51.154;4.456;2024-01-15T00:59:04;7.10;;;2.30;;
16385;SDS011;8302;51.154;4.456;2024-01-15T01:01:31;1.42;;;1.23;;
16385;SDS011;8302;51.154;4.456;2024-01-15T01:04:00;1.80;;;1.55;;
16385;SDS011;8302;51.154;4.456;2024-01-15T01:06:28;1.75;;;1.42;;
16385;SDS011;8302;51.154;4.456;2024-01-15T01:08:59;2.35;;;1.58;;
16385;SDS011;8302;51.154;4.456;2024-01-15T01:11:27;2.40;;;1.50;;
16385;SDS011;8302;51.154;4.456;2024-01-15T01:13:55;4.43;;;1.52;;
16385;SDS011;8302;51.154;4.456;2024-01-15T01:16:23;2.35;;;1.50;;
16385;SDS011;8302;51.154;4.456;2024-01-15T01:18:50;2.88;;;1.55;;
16385;SDS011;8302;51.154;4.456;2024-01-15T01:21:20;2.67;;;1.88;;
16385;SDS011;8302;51.154;4.456;2024-01-15T01:23:48;2.25;;;1.48;;
16385;SDS011;8302;51.154;4.456;2024-01-15T01:26:16;2.03;;;1.50;;
16385;SDS011;8302;51.154;4.456;2024-01-15T01:28:44;3.13;;;1.50;;
16385;SDS011;8302;51.154;4.456;2024-01-15T01:31:12;1.25;;;1.10;;
16385;SDS011;8302;51.154;4.456;2024-01-15T01:33:41;2.47;;;1.38;;
16385;SDS011;8302;51.154;4.456;2024-01-15T01:36:09;3.38;;;1.70;;
16385;SDS011;8302;51.154;4.456;2024-01-15T01:38:39;4.00;;;1.65;;
16385;SDS011;8302;51.154;4.456;2024-01-15T01:41:07;2.28;;;1.40;;
16385;SDS011;8302;51.154;4.456;2024-01-15T01:43:35;2.15;;;1.30;;
16385;SDS011;8302;51.154;4.456;2024-01-15T01:46:03;3.53;;;1.33;;
16385;SDS011;8302;51.154;4.456;2024-01-15T01:48:30;2.28;;;1.30;;
16385;SDS011;8302;51.154;4.456;2024-01-15T01:50:59;2.28;;;1.73;;
16385;SDS011;8302;51.154;4.456;2024-01-15T01:53:28;4.18;;;1.38;;
16385;SDS011;8302;51.154;4.456;2024-01-15T01:55:58;2.03;;;1.48;;
16385;SDS011;8302;51.154;4.456;2024-01-15T01:58:25;1.95;;;1.20;;
16385;SDS011;8302;51.154;4.456;2024-01-15T02:00:53;2.08;;;1.33;;
16385;SDS011;8302;51.154;4.456;2024-01-15T02:03:21;2.10;;;1.40;;
16385;SDS011;8302;51.154;4.456;2024-01-15T02:05:49;1.70;;;1.35;;
16385;SDS011;8302;51.154;4.456;2024-01-15T02:08:17;2.38;;;1.30;;
16385;SDS011;8302;51.154;4.456;2024-01-15T02:10:45;2.35;;;1.45;;
16385;SDS011;8302;51.154;4.456;2024-01-15T02:13:14;1.50;;;1.40;;
16385;SDS011;8302;51.154;4.456;2024-01-15T02:15:42;1.80;;;1.15;;
16385;SDS011;8302;51.154;4.456;2024-01-15T02:18:09;1.92;;;1.27;;
16385;SDS011;8302;51.154;4.456;2024-01-15T02:20:37;2.20;;;1.40;;
16385;SDS011;8302;51.154;4.456;2024-01-15T02:23:09;1.85;;;1.52;;
16385;SDS011;8302;51.154;4.456;2024-01-15T02:25:38;4.82;;;1.25;;
16385;SDS011;8302;51.154;4.456;2024-01-15T02:28:06;1.85;;;1.45;;
16385;SDS011;8302;51.154;4.456;2024-01-15T02:30:34;1.65;;;1.02;;
16385;SDS011;8302;51.154;4.456;2024-01-15T02:33:04;1.67;;;1.45;;
16385;SDS011;8302;51.154;4.456;2024-01-15T02:35:32;1.42;;;1.20;;
16385;SDS011;8302;51.154;4.456;2024-01-15T02:38:00;1.88;;;1.42;;
16385;SDS011;8302;51.154;4.456;2024-01-15T02:40:29;1.73;;;1.00;;
16385;SDS011;8302;51.154;4.456;2024-01-15T02:42:57;3.38;;;1.45;;
16385;SDS011;8302;51.154;4.456;2024-01-15T02:45:25;1.35;;;1.20;;
16385;SDS011;8302;51.154;4.456;2024-01-15T02:47:52;1.60;;;0.88;;
16385;SDS011;8302;51.154;4.456;2024-01-15T02:50:20;1.45;;;1.02;;
16385;SDS011;8302;51.154;4.456;2024-01-15T02:52:48;1.33;;;1.05;;
16385;SDS011;8302;51.154;4.456;2024-01-15T02:55:16;1.67;;;1.08;;
16385;SDS011;8302;51.154;4.456;2024-01-15T02:57:45;2.25;;;1.17;;
16385;SDS011;8302;51.154;4.456;2024-01-15T03:00:13;2.05;;;1.23;;
16385;SDS011;8302;51.154;4.456;2024-01-15T03:02:44;2.65;;;0.95;;
16385;SDS011;8302;51.154;4.456;2024-01-15T03:05:14;2.20;;;0.90;;
16385;SDS011;8302;51.154;4.456;2024-01-15T03:07:42;1.98;;;1.30;;
16385;SDS011;8302;51.154;4.456;2024-01-15T03:10:10;1.15;;;0.90;;
16385;SDS011;8302;51.154;4.456;2024-01-15T03:12:38;1.88;;;0.70;;
16385;SDS011;8302;51.154;4.456;2024-01-15T03:15:07;1.45;;;0.85;;
16385;SDS011;8302;51.154;4.456;2024-01-15T03:17:35;1.95;;;1.20;;
16385;SDS011;8302;51.154;4.456;2024-01-15T03:20:03;2.65;;;1.25;;
16385;SDS011;8302;51.154;4.456;2024-01-15T03:22:31;2.67;;;1.13;;
16385;SDS011;8302;51.154;4.456;2024-01-15T03:24:58;1.48;;;0.77;;
16385;SDS011;8302;51.154;4.456;2024-01-15T03:27:26;1.67;;;0.68;;
16385;SDS011;8302;51.154;4.456;2024-01-15T03:29:54;0.85;;;0.80;;
16385;SDS011;8302;51.154;4.456;2024-01-15T03:32:23;1.08;;;0.82;;
16385;SDS011;8302;51.154;4.456;2024-01-15T03:34:51;3.35;;;1.05;;
16385;SDS011;8302;51.154;4.456;2024-01-15T03:37:19;0.73;;;0.68;;
16385;SDS011;8302;51.154;4.456;2024-01-15T03:39:47;0.93;;;0.88;;
16385;SDS011;8302;51.154;4.456;2024-01-15T03:42:15;1.10;;;1.00;;
16385;SDS011;8302;51.154;4.456;2024-01-15T03:44:43;1.20;;;0.90;;
16385;SDS011;8302;51.154;4.456;2024-01-15T03:47:11;1.75;;;0.90;;
16385;SDS011;8302;51.154;4.456;2024-01-15T03:49:40;1.50;;;1.00;;
16385;SDS011;8302;51.154;4.456;2024-01-15T03:52:08;1.70;;;0.90;;
16385;SDS011;8302;51.154;4.456;2024-01-15T03:54:35;1.83;;;0.93;;
16385;SDS011;8302;51.154;4.456;2024-01-15T03:57:04;1.40;;;0.85;;
16385;SDS011;8302;51.154;4.456;2024-01-15T03:59:32;2.28;;;0.90;;
16385;SDS011;8302;51.154;4.456;2024-01-15T04:02:00;0.57;;;0.57;;
16385;SDS011;8302;51.154;4.456;2024-01-15T04:04:27;1.05;;;0.70;;
16385;SDS011;8302;51.154;4.456;2024-01-15T04:06:57;2.70;;;0.60;;
16385;SDS011;8302;51.154;4.456;2024-01-15T04:09:25;1.00;;;0.90;;
16385;SDS011;8302;51.154;4.456;2024-01-15T04:11:52;0.85;;;0.82;;
16385;SDS011;8302;51.154;4.456;2024-01-15T04:14:20;1.90;;;1.00;;
16385;SDS011;8302;51.154;4.456;2024-01-15T04:16:48;1.63;;;0.90;;
16385;SDS011;8302;51.154;4.456;2024-01-15T04:19:15;1.63;;;0.93;;
16385;SDS011;8302;51.154;4.456;2024-01-15T04:21:43;0.52;;;0.52;;
16385;SDS011;8302;51.154;4.456;2024-01-15T04:24:13;1.95;;;0.88;;
16385;SDS011;8302;51.154;4.456;2024-01-15T04:26:40;1.67;;;1.00;;
16385;SDS011;8302;51.154;4.456;2024-01-15T04:29:09;1.73;;;0.88;;
16385;SDS011;8302;51.154;4.456;2024-01-15T04:31:37;0.65;;;0.65;;
16385;SDS011;8302;51.154;4.456;2024-01-15T04:34:05;2.90;;;0.88;;
16385;SDS011;8302;51.154;4.456;2024-01-15T04:36:38;1.83;;;0.95;;
16385;SDS011;8302;51.154;4.456;2024-01-15T04:39:06;0.93;;;0.80;;
16385;SDS011;8302;51.154;4.456;2024-01-15T04:41:35;0.77;;;0.57;;
16385;SDS011;8302;51.154;4.456;2024-01-15T04:44:03;1.83;;;0.80;;
16385;SDS011;8302;51.154;4.456;2024-01-15T04:46:30;1.40;;;0.85;;
16385;SDS011;8302;51.154;4.456;2024-01-15T04:48:58;2.33;;;0.88;;
16385;SDS011;8302;51.154;4.456;2024-01-15T04:51:26;2.03;;;0.77;;
16385;SDS011;8302;51.154;4.456;2024-01-15T04:53:54;1.33;;;0.77;;
16385;SDS011;8302;51.154;4.456;2024-01-15T04:56:21;0.82;;;0.60;;
16385;SDS011;8302;51.154;4.456;2024-01-15T04:58:51;2.67;;;0.80;;
16385;SDS011;8302;51.154;4.456;2024-01-15T05:01:18;2.42;;;1.00;;
16385;SDS011;8302;51.154;4.456;2024-01-15T05:03:46;1.42;;;0.60;;
16385;SDS011;8302;51.154;4.456;2024-01-15T05:06:14;0.75;;;0.73;;
16385;SDS011;8302;51.154;4.456;2024-01-15T05:08:42;1.95;;;1.13;;
16385;SDS011;8302;51.154;4.456;2024-01-15T05:11:10;2.55;;;0.82;;
16385;SDS011;8302;51.154;4.456;2024-01-15T05:13:37;0.77;;;0.77;;
16385;SDS011;8302;51.154;4.456;2024-01-15T05:16:06;2.90;;;0.82;;
16385;SDS011;8302;51.154;4.456;2024-01-15T05:18:34;0.70;;;0.70;;
16385;SDS011;8302;51.154;4.456;2024-01-15T05:21:04;2.03;;;0.80;;
16385;SDS011;8302;51.154;4.456;2024-01-15T05:23:31;1.58;;;0.50;;
16385;SDS011;8302;51.154;4.456;2024-01-15T05:25:59;1.45;;;0.73;;
16385;SDS011;8302;51.154;4.456;2024-01-15T05:28:27;4.80;;;0.77;;
16385;SDS011;8302;51.154;4.456;2024-01-15T05:30:55;0.98;;;0.68;;
16385;SDS011;8302;51.154;4.456;2024-01-15T05:33:25;1.88;;;0.80;;
16385;SDS011;8302;51.154;4.456;2024-01-15T05:35:53;1.35;;;1.10;;
16385;SDS011;8302;51.154;4.456;2024-01-15T05:38:21;0.80;;;0.80;;
16385;SDS011;8302;51.154;4.456;2024-01-15T05:40:48;1.67;;;0.85;;
16385;SDS011;8302;51.154;4.456;2024-01-15T05:43:16;2.30;;;0.60;;
16385;SDS011;8302;51.154;4.456;2024-01-15T05:45:44;2.25;;;1.02;;
16385;SDS011;8302;51.154;4.456;2024-01-15T05:48:12;1.45;;;0.90;;
16385;SDS011;8302;51.154;4.456;2024-01-15T05:50:41;1.00;;;0.80;;
16385;SDS011;8302;51.154;4.456;2024-01-15T05:53:09;0.82;;;0.60;;
16385;SDS011;8302;51.154;4.456;2024-01-15T05:55:37;3.67;;;1.08;;
16385;SDS011;8302;51.154;4.456;2024-01-15T05:58:05;2.35;;;0.68;;
16385;SDS011;8302;51.154;4.456;2024-01-15T06:00:32;2.28;;;0.90;;
16385;SDS011;8302;51.154;4.456;2024-01-15T06:03:02;2.90;;;0.95;;
16385;SDS011;8302;51.154;4.456;2024-01-15T06:05:30;2.22;;;0.98;;
16385;SDS011;8302;51.154;4.456;2024-01-15T06:07:59;18.45;;;2.00;;
16385;SDS011;8302;51.154;4.456;2024-01-15T06:10:26;3.42;;;1.50;;
16385;SDS011;8302;51.154;4.456;2024-01-15T06:12:54;9.48;;;2.15;;
16385;SDS011;8302;51.154;4.456;2024-01-15T06:15:22;4.43;;;2.22;;
16385;SDS011;8302;51.154;4.456;2024-01-15T06:17:50;5.43;;;1.95;;
16385;SDS011;8302;51.154;4.456;2024-01-15T06:20:18;6.43;;;2.42;;
16385;SDS011;8302;51.154;4.456;2024-01-15T06:22:45;5.85;;;2.45;;
16385;SDS011;8302;51.154;4.456;2024-01-15T06:25:15;14.68;;;3.67;;
16385;SDS011;8302;51.154;4.456;2024-01-15T06:27:42;7.72;;;2.53;;
16385;SDS011;8302;51.154;4.456;2024-01-15T06:30:10;11.25;;;3.65;;
16385;SDS011;8302;51.154;4.456;2024-01-15T06:32:39;11.70;;;3.25;;
16385;SDS011;8302;51.154;4.456;2024-01-15T06:35:07;9.88;;;3.35;;
16385;SDS011;8302;51.154;4.456;2024-01-15T06:37:36;13.07;;;3.53;;
16385;SDS011;8302;51.154;4.456;2024-01-15T06:40:05;12.13;;;3.40;;
16385;SDS011;8302;51.154;4.456;2024-01-15T06:42:34;7.47;;;2.95;;
16385;SDS011;8302;51.154;4.456;2024-01-15T06:45:02;10.57;;;3.15;;
16385;SDS011;8302;51.154;4.456;2024-01-15T06:47:30;16.95;;;3.67;;
16385;SDS011;8302;51.154;4.456;2024-01-15T06:49:59;6.47;;;2.42;;
16385;SDS011;8302;51.154;4.456;2024-01-15T06:52:27;9.27;;;2.75;;
16385;SDS011;8302;51.154;4.456;2024-01-15T06:54:54;9.05;;;3.65;;
16385;SDS011;8302;51.154;4.456;2024-01-15T06:57:22;11.05;;;2.75;;
16385;SDS011;8302;51.154;4.456;2024-01-15T06:59:51;8.93;;;3.08;;
16385;SDS011;8302;51.154;4.456;2024-01-15T07:02:19;12.05;;;3.15;;
16385;SDS011;8302;51.154;4.456;2024-01-15T07:04:47;8.13;;;3.33;;
16385;SDS011;8302;51.154;4.456;2024-01-15T07:07:15;4.95;;;2.15;;
16385;SDS011;8302;51.154;4.456;2024-01-15T07:09:43;15.45;;;2.53;;
16385;SDS011;8302;51.154;4.456;2024-01-15T07:12:11;9.10;;;2.50;;
16385;SDS011;8302;51.154;4.456;2024-01-15T07:14:39;7.30;;;2.75;;
16385;SDS011;8302;51.154;4.456;2024-01-15T07:17:08;8.55;;;2.40;;
16385;SDS011;8302;51.154;4.456;2024-01-15T07:19:35;12.02;;;2.03;;
16385;SDS011;8302;51.154;4.456;2024-01-15T07:22:04;2.55;;;1.40;;
16385;SDS011;8302;51.154;4.456;2024-01-15T07:24:31;5.95;;;2.10;;
16385;SDS011;8302;51.154;4.456;2024-01-15T07:27:00;5.80;;;2.10;;
16385;SDS011;8302;51.154;4.456;2024-01-15T07:29:28;5.53;;;2.15;;
16385;SDS011;8302;51.154;4.456;2024-01-15T07:31:56;4.88;;;2.33;;
16385;SDS011;8302;51.154;4.456;2024-01-15T07:34:25;7.75;;;2.55;;
16385;SDS011;8302;51.154;4.456;2024-01-15T07:36:53;7.20;;;2.38;;
16385;SDS011;8302;51.154;4.456;2024-01-15T07:39:21;8.50;;;1.85;;
16385;SDS011;8302;51.154;4.456;2024-01-15T07:41:49;4.65;;;1.67;;
16385;SDS011;8302;51.154;4.456;2024-01-15T07:44:17;4.95;;;1.33;;
16385;SDS011;8302;51.154;4.456;2024-01-15T07:46:44;5.90;;;1.63;;
16385;SDS011;8302;51.154;4.456;2024-01-15T07:49:12;3.78;;;1.70;;
16385;SDS011;8302;51.154;4.456;2024-01-15T07:51:42;4.65;;;1.73;;
16385;SDS011;8302;51.154;4.456;2024-01-15T07:54:10;7.10;;;1.63;;
16385;SDS011;8302;51.154;4.456;2024-01-15T07:56:52;5.65;;;1.85;;
16385;SDS011;8302;51.154;4.456;2024-01-15T07:59:20;3.45;;;1.75;;
16385;SDS011;8302;51.154;4.456;2024-01-15T08:01:48;3.47;;;1.40;;
16385;SDS011;8302;51.154;4.456;2024-01-15T08:04:16;4.55;;;1.63;;
16385;SDS011;8302;51.154;4.456;2024-01-15T08:06:45;3.45;;;1.60;;
16385;SDS011;8302;51.154;4.456;2024-01-15T08:09:13;5.07;;;1.60;;
16385;SDS011;8302;51.154;4.456;2024-01-15T08:11:42;4.13;;;1.45;;
16385;SDS011;8302;51.154;4.456;2024-01-15T08:14:10;6.05;;;1.83;;
16385;SDS011;8302;51.154;4.456;2024-01-15T08:16:38;3.50;;;1.35;;
16385;SDS011;8302;51.154;4.456;2024-01-15T08:19:06;2.95;;;1.23;;
16385;SDS011;8302;51.154;4.456;2024-01-15T08:21:34;5.47;;;1.70;;
16385;SDS011;8302;51.154;4.456;2024-01-15T08:24:04;4.78;;;1.48;;
16385;SDS011;8302;51.154;4.456;2024-01-15T08:26:32;4.28;;;1.10;;
16385;SDS011;8302;51.154;4.456;2024-01-15T08:29:00;1.50;;;1.13;;
16385;SDS011;8302;51.154;4.456;2024-01-15T08:31:27;3.58;;;1.50;;
16385;SDS011;8302;51.154;4.456;2024-01-15T08:33:55;4.35;;;1.27;;
16385;SDS011;8302;51.154;4.456;2024-01-15T08:36:24;3.92;;;1.13;;
16385;SDS011;8302;51.154;4.456;2024-01-15T08:38:52;3.42;;;1.45;;
16385;SDS011;8302;51.154;4.456;2024-01-15T08:41:21;1.52;;;0.88;;
16385;SDS011;8302;51.154;4.456;2024-01-15T08:43:49;7.45;;;1.50;;
16385;SDS011;8302;51.154;4.456;2024-01-15T08:46:19;3.72;;;1.20;;
16385;SDS011;8302;51.154;4.456;2024-01-15T08:48:47;2.38;;;1.02;;
16385;SDS011;8302;51.154;4.456;2024-01-15T08:51:15;6.57;;;1.83;;
16385;SDS011;8302;51.154;4.456;2024-01-15T08:53:43;5.82;;;2.20;;
16385;SDS011;8302;51.154;4.456;2024-01-15T08:56:10;4.00;;;1.77;;
16385;SDS011;8302;51.154;4.456;2024-01-15T08:58:39;4.35;;;2.08;;
16385;SDS011;8302;51.154;4.456;2024-01-15T09:01:07;3.58;;;2.10;;
16385;SDS011;8302;51.154;4.456;2024-01-15T09:03:35;7.00;;;1.77;;
16385;SDS011;8302;51.154;4.456;2024-01-15T09:06:03;3.42;;;1.63;;
16385;SDS011;8302;51.154;4.456;2024-01-15T09:08:31;4.28;;;1.63;;
16385;SDS011;8302;51.154;4.456;2024-01-15T09:10:59;5.22;;;1.88;;
16385;SDS011;8302;51.154;4.456;2024-01-15T09:13:29;3.20;;;1.73;;
16385;SDS011;8302;51.154;4.456;2024-01-15T09:15:58;6.28;;;1.90;;
16385;SDS011;8302;51.154;4.456;2024-01-15T09:18:27;5.18;;;1.75;;
16385;SDS011;8302;51.154;4.456;2024-01-15T09:20:56;3.92;;;2.20;;
16385;SDS011;8302;51.154;4.456;2024-01-15T09:23:24;4.45;;;1.75;;
16385;SDS011;8302;51.154;4.456;2024-01-15T09:25:54;4.13;;;1.70;;
16385;SDS011;8302;51.154;4.456;2024-01-15T09:28:22;4.00;;;1.65;;
16385;SDS011;8302;51.154;4.456;2024-01-15T09:30:50;3.05;;;1.50;;
16385;SDS011;8302;51.154;4.456;2024-01-15T09:33:19;5.93;;;1.70;;
16385;SDS011;8302;51.154;4.456;2024-01-15T09:35:47;4.65;;;1.65;;
16385;SDS011;8302;51.154;4.456;2024-01-15T09:38:15;3.03;;;1.85;;
16385;SDS011;8302;51.154;4.456;2024-01-15T09:40:45;3.72;;;1.55;;
16385;SDS011;8302;51.154;4.456;2024-01-15T09:43:13;2.35;;;1.30;;
16385;SDS011;8302;51.154;4.456;2024-01-15T09:45:42;2.20;;;1.30;;
16385;SDS011;8302;51.154;4.456;2024-01-15T09:48:10;4.22;;;1.50;;
16385;SDS011;8302;51.154;4.456;2024-01-15T09:50:40;2.58;;;1.40;;
16385;SDS011;8302;51.154;4.456;2024-01-15T09:53:08;1.77;;;1.23;;
16385;SDS011;8302;51.154;4.456;2024-01-15T09:55:36;6.45;;;1.60;;
16385;SDS011;8302;51.154;4.456;2024-01-15T09:58:04;4.00;;;1.63;;
16385;SDS011;8302;51.154;4.456;2024-01-15T10:00:32;2.28;;;1.20;;
16385;SDS011;8302;51.154;4.456;2024-01-15T10:03:03;4.43;;;1.52;;
16385;SDS011;8302;51.154;4.456;2024-01-15T10:05:31;4.82;;;1.67;;
16385;SDS011;8302;51.154;4.456;2024-01-15T10:08:00;5.15;;;1.83;;
16385;SDS011;8302;51.154;4.456;2024-01-15T10:10:29;4.40;;;1.60;;
16385;SDS011;8302;51.154;4.456;2024-01-15T10:12:57;4.25;;;1.58;;
16385;SDS011;8302;51.154;4.456;2024-01-15T10:15:26;4.10;;;1.65;;
16385;SDS011;8302;51.154;4.456;2024-01-15T10:17:54;2.10;;;1.40;;
16385;SDS011;8302;51.154;4.456;2024-01-15T10:20:21;3.72;;;1.50;;
16385;SDS011;8302;51.154;4.456;2024-01-15T10:22:50;2.03;;;1.35;;
16385;SDS011;8302;51.154;4.456;2024-01-15T10:25:19;5.35;;;1.38;;
16385;SDS011;8302;51.154;4.456;2024-01-15T10:27:59;3.75;;;1.50;;
16385;SDS011;8302;51.154;4.456;2024-01-15T10:30:27;2.88;;;1.15;;
16385;SDS011;8302;51.154;4.456;2024-01-15T10:32:58;4.22;;;1.45;;
16385;SDS011;8302;51.154;4.456;2024-01-15T10:35:28;3.85;;;1.60;;
16385;SDS011;8302;51.154;4.456;2024-01-15T10:37:56;3.05;;;1.38;;
16385;SDS011;8302;51.154;4.456;2024-01-15T10:40:25;4.05;;;1.50;;
16385;SDS011;8302;51.154;4.456;2024-01-15T10:42:53;2.75;;;1.27;;
16385;SDS011;8302;51.154;4.456;2024-01-15T10:45:22;3.33;;;1.30;;
16385;SDS011;8302;51.154;4.456;2024-01-15T10:47:50;2.00;;;1.20;;
16385;SDS011;8302;51.154;4.456;2024-01-15T10:50:18;3.30;;;0.80;;
16385;SDS011;8302;51.154;4.456;2024-01-15T10:52:46;2.50;;;1.00;;
16385;SDS011;8302;51.154;4.456;2024-01-15T10:55:14;1.05;;;0.52;;
16385;SDS011;8302;51.154;4.456;2024-01-15T10:57:46;3.60;;;0.90;;
16385;SDS011;8302;51.154;4.456;2024-01-15T11:00:16;1.55;;;0.75;;
16385;SDS011;8302;51.154;4.456;2024-01-15T11:02:44;1.20;;;0.73;;
16385;SDS011;8302;51.154;4.456;2024-01-15T11:05:12;1.45;;;0.70;;
16385;SDS011;8302;51.154;4.456;2024-01-15T11:07:40;2.55;;;0.70;;
16385;SDS011;8302;51.154;4.456;2024-01-15T11:10:09;0.70;;;0.70;;
16385;SDS011;8302;51.154;4.456;2024-01-15T11:12:58;2.05;;;1.00;;
16385;SDS011;8302;51.154;4.456;2024-01-15T11:15:26;1.80;;;0.60;;
16385;SDS011;8302;51.154;4.456;2024-01-15T11:17:59;1.05;;;0.80;;
16385;SDS011;8302;51.154;4.456;2024-01-15T11:20:28;0.52;;;0.52;;
16385;SDS011;8302;51.154;4.456;2024-01-15T11:22:57;0.70;;;0.40;;
16385;SDS011;8302;51.154;4.456;2024-01-15T11:25:33;2.50;;;1.13;;
16385;SDS011;8302;51.154;4.456;2024-01-15T11:28:03;1.02;;;0.93;;
16385;SDS011;8302;51.154;4.456;2024-01-15T11:30:31;1.20;;;0.73;;
16385;SDS011;8302;51.154;4.456;2024-01-15T11:33:03;0.50;;;0.50;;
16385;SDS011;8302;51.154;4.456;2024-01-15T11:35:49;1.23;;;0.65;;
16385;SDS011;8302;51.154;4.456;2024-01-15T11:38:26;1.15;;;0.60;;
16385;SDS011;8302;51.154;4.456;2024-01-15T11:40:54;1.00;;;0.60;;
16385;SDS011;8302;51.154;4.456;2024-01-15T11:43:24;0.40;;;0.40;;
16385;SDS011;8302;51.154;4.456;2024-01-15T11:45:52;0.45;;;0.30;;
16385;SDS011;8302;51.154;4.456;2024-01-15T11:48:21;0.40;;;0.40;;
16385;SDS011;8302;51.154;4.456;2024-01-15T11:50:50;0.63;;;0.63;;
16385;SDS011;8302;51.154;4.456;2024-01-15T11:53:27;0.45;;;0.40;;
16385;SDS011;8302;51.154;4.456;2024-01-15T11:55:57;0.73;;;0.70;;
16385;SDS011;8302;51.154;4.456;2024-01-15T11:58:27;0.98;;;0.68;;
16385;SDS011;8302;51.154;4.456;2024-01-15T12:00:54;0.68;;;0.63;;
16385;SDS011;8302;51.154;4.456;2024-01-15T12:03:23;0.55;;;0.55;;
16385;SDS011;8302;51.154;4.456;2024-01-15T12:05:52;0.90;;;0.70;;
16385;SDS011;8302;51.154;4.456;2024-01-15T12:08:23;1.55;;;0.68;;
16385;SDS011;8302;51.154;4.456;2024-01-15T12:10:52;0.82;;;0.40;;
16385;SDS011;8302;51.154;4.456;2024-01-15T12:13:20;1.60;;;0.60;;
16385;SDS011;8302;51.154;4.456;2024-01-15T12:15:49;1.52;;;0.40;;
16385;SDS011;8302;51.154;4.456;2024-01-15T12:18:18;1.65;;;0.50;;
16385;SDS011;8302;51.154;4.456;2024-01-15T12:20:47;0.50;;;0.30;;
16385;SDS011;8302;51.154;4.456;2024-01-15T12:23:15;0.77;;;0.50;;
16385;SDS011;8302;51.154;4.456;2024-01-15T12:25:43;2.55;;;0.60;;
16385;SDS011;8302;51.154;4.456;2024-01-15T12:28:11;1.95;;;0.52;;
16385;SDS011;8302;51.154;4.456;2024-01-15T12:30:39;0.40;;;0.30;;
16385;SDS011;8302;51.154;4.456;2024-01-15T12:33:08;0.60;;;0.55;;
16385;SDS011;8302;51.154;4.456;2024-01-15T12:35:36;1.48;;;0.32;;
16385;SDS011;8302;51.154;4.456;2024-01-15T12:38:04;0.30;;;0.25;;
16385;SDS011;8302;51.154;4.456;2024-01-15T12:40:32;1.00;;;0.60;;
16385;SDS011;8302;51.154;4.456;2024-01-15T12:43:02;1.17;;;0.50;;
16385;SDS011;8302;51.154;4.456;2024-01-15T12:45:30;0.43;;;0.40;;
16385;SDS011;8302;51.154;4.456;2024-01-15T12:47:58;0.68;;;0.68;;
16385;SDS011;8302;51.154;4.456;2024-01-15T12:50:28;0.50;;;0.50;;
16385;SDS011;8302;51.154;4.456;2024-01-15T12:52:56;0.63;;;0.50;;
16385;SDS011;8302;51.154;4.456;2024-01-15T12:55:25;2.75;;;0.38;;
16385;SDS011;8302;51.154;4.456;2024-01-15T12:57:53;1.20;;;0.80;;
16385;SDS011;8302;51.154;4.456;2024-01-15T13:00:22;0.38;;;0.38;;
16385;SDS011;8302;51.154;4.456;2024-01-15T13:02:52;0.30;;;0.30;;
16385;SDS011;8302;51.154;4.456;2024-01-15T13:05:21;4.40;;;0.50;;
16385;SDS011;8302;51.154;4.456;2024-01-15T13:07:51;0.32;;;0.32;;
16385;SDS011;8302;51.154;4.456;2024-01-15T13:10:19;0.35;;;0.20;;
16385;SDS011;8302;51.154;4.456;2024-01-15T13:12:50;0.30;;;0.30;;
16385;SDS011;8302;51.154;4.456;2024-01-15T13:15:18;0.35;;;0.35;;
16385;SDS011;8302;51.154;4.456;2024-01-15T13:17:46;1.60;;;0.45;;
16385;SDS011;8302;51.154;4.456;2024-01-15T13:20:14;0.60;;;0.40;;
16385;SDS011;8302;51.154;4.456;2024-01-15T13:22:42;0.65;;;0.40;;
16385;SDS011;8302;51.154;4.456;2024-01-15T13:25:12;0.32;;;0.32;;
16385;SDS011;8302;51.154;4.456;2024-01-15T13:27:40;0.30;;;0.30;;
16385;SDS011;8302;51.154;4.456;2024-01-15T13:30:09;0.20;;;0.20;;
16385;SDS011;8302;51.154;4.456;2024-01-15T13:32:39;0.35;;;0.35;;
16385;SDS011;8302;51.154;4.456;2024-01-15T13:35:07;1.75;;;0.30;;
16385;SDS011;8302;51.154;4.456;2024-01-15T13:37:39;0.30;;;0.30;;
16385;SDS011;8302;51.154;4.456;2024-01-15T13:40:08;0.20;;;0.20;;
16385;SDS011;8302;51.154;4.456;2024-01-15T13:42:44;0.30;;;0.30;;
16385;SDS011;8302;51.154;4.456;2024-01-15T13:45:12;0.43;;;0.43;;
16385;SDS011;8302;51.154;4.456;2024-01-15T13:47:41;0.57;;;0.52;;
16385;SDS011;8302;51.154;4.456;2024-01-15T13:50:09;0.50;;;0.25;;
16385;SDS011;8302;51.154;4.456;2024-01-15T13:52:38;2.03;;;0.32;;
16385;SDS011;8302;51.154;4.456;2024-01-15T13:55:05;0.10;;;0.10;;
16385;SDS011;8302;51.154;4.456;2024-01-15T13:57:35;0.93;;;0.43;;
16385;SDS011;8302;51.154;4.456;2024-01-15T14:00:05;3.05;;;0.50;;
16385;SDS011;8302;51.154;4.456;2024-01-15T14:02:38;0.20;;;0.20;;
16385;SDS011;8302;51.154;4.456;2024-01-15T14:05:05;0.73;;;0.28;;
16385;SDS011;8302;51.154;4.456;2024-01-15T14:07:34;0.60;;;0.60;;
16385;SDS011;8302;51.154;4.456;2024-01-15T14:10:01;0.30;;;0.30;;
16385;SDS011;8302;51.154;4.456;2024-01-15T14:12:30;2.72;;;0.20;;
16385;SDS011;8302;51.154;4.456;2024-01-15T14:14:58;0.68;;;0.38;;
16385;SDS011;8302;51.154;4.456;2024-01-15T14:17:27;0.20;;;0.10;;
16385;SDS011;8302;51.154;4.456;2024-01-15T14:19:55;0.45;;;0.32;;
16385;SDS011;8302;51.154;4.456;2024-01-15T14:22:23;0.73;;;0.43;;
16385;SDS011;8302;51.154;4.456;2024-01-15T14:24:51;0.40;;;0.30;;
16385;SDS011;8302;51.154;4.456;2024-01-15T14:27:19;0.25;;;0.25;;
16385;SDS011;8302;51.154;4.456;2024-01-15T14:29:48;0.30;;;0.30;;
16385;SDS011;8302;51.154;4.456;2024-01-15T14:32:15;0.60;;;0.40;;
16385;SDS011;8302;51.154;4.456;2024-01-15T14:34:44;0.40;;;0.40;;
16385;SDS011;8302;51.154;4.456;2024-01-15T14:37:12;0.52;;;0.30;;
16385;SDS011;8302;51.154;4.456;2024-01-15T14:39:40;0.30;;;0.30;;
16385;SDS011;8302;51.154;4.456;2024-01-15T14:42:08;0.43;;;0.43;;
16385;SDS011;8302;51.154;4.456;2024-01-15T14:44:35;0.40;;;0.40;;
16385;SDS011;8302;51.154;4.456;2024-01-15T14:47:04;0.30;;;0.30;;
16385;SDS011;8302;51.154;4.456;2024-01-15T14:49:32;0.43;;;0.43;;
16385;SDS011;8302;51.154;4.456;2024-01-15T14:52:03;0.17;;;0.17;;
16385;SDS011;8302;51.154;4.456;2024-01-15T14:54:30;1.05;;;0.47;;
16385;SDS011;8302;51.154;4.456;2024-01-15T14:56:58;0.65;;;0.60;;
16385;SDS011;8302;51.154;4.456;2024-01-15T14:59:26;0.52;;;0.40;;
16385;SDS011;8302;51.154;4.456;2024-01-15T15:01:55;0.30;;;0.22;;
16385;SDS011;8302;51.154;4.456;2024-01-15T15:04:23;1.08;;;0.77;;
16385;SDS011;8302;51.154;4.456;2024-01-15T15:06:51;0.43;;;0.43;;
16385;SDS011;8302;51.154;4.456;2024-01-15T15:09:20;0.22;;;0.22;;